Terminal Aerodrome Forecast
Issued by NWS

Home | Current Version | Previous Version | Text Only | Print | Product List | Glossary On
Versions: 1 2 3 4 5 6 7 8 9 10 11 12 13 14
000
FTUS46 KSEW 180100 AAA
TAFCLM
TAF AMD
KCLM 180117Z 1801/1824 VRB03KT P6SM VCSH FEW060 BKN100 OVC200
      TEMPO 1801/1805 -SHRA
     FM180500 VRB03KT P6SM -SHRA BKN060 OVC100
     FM181500 28005KT P6SM BKN030=

USA.gov is the U.S. government's official web portal to all federal, state and local government web resources and services.